Time;durP1;ratioP1;P1;durP2;ratioP2;P2;SDS_P1;SDS_P2;PMS_P1;PMS_P2;Temp;Humidity;BMP_temperature;BMP_pressure;BME280_temperature;BME280_humidity;BME280_pressure;Samples;Min_cycle;Max_cycle;Signal;HPM_P1;HPM_P2
2022/04/18 00:01:52;;;;;;;4.03;3.40;;;5.30;86.80;;;;;;5051929;28;20276;-71
2022/04/18 00:04:18;;;;;;;4.20;3.30;;;5.30;87.30;;;;;;5051851;28;20182;-71
2022/04/18 00:06:44;;;;;;;4.03;3.40;;;5.30;87.20;;;;;;5051678;28;20206;-71
2022/04/18 00:09:10;;;;;;;4.27;3.37;;;5.30;87.10;;;;;;5056139;28;20182;-71
2022/04/18 00:11:36;;;;;;;3.93;3.07;;;5.30;87.40;;;;;;5056015;28;20185;-71
2022/04/18 00:14:02;;;;;;;5.00;3.27;;;5.30;88.00;;;;;;5056871;28;20179;-71
2022/04/18 00:16:27;;;;;;;4.07;3.20;;;5.20;88.50;;;;;;5056671;28;20202;-71
2022/04/18 00:18:53;;;;;;;6.40;3.30;;;5.10;89.90;;;;;;5055949;28;20605;-71
2022/04/18 00:21:19;;;;;;;3.00;2.80;;;5.00;90.50;;;;;;5056347;28;20232;-71
2022/04/18 00:23:45;;;;;;;2.40;2.20;;;5.00;90.80;;;;;;5055386;28;20178;-70
2022/04/18 00:26:11;;;;;;;4.03;3.23;;;5.00;90.70;;;;;;5055250;28;20245;-71
2022/04/18 00:28:37;;;;;;;3.40;3.10;;;5.00;90.80;;;;;;5055367;28;20209;-71
2022/04/18 00:31:03;;;;;;;3.63;3.07;;;5.00;91.10;;;;;;5056805;28;20261;-71
2022/04/18 00:33:29;;;;;;;3.47;2.83;;;4.90;91.40;;;;;;5056301;28;20185;-69
2022/04/18 00:35:55;;;;;;;3.20;2.90;;;4.80;92.10;;;;;;5054969;28;20221;-69
2022/04/18 00:38:22;;;;;;;2.57;2.37;;;4.70;92.70;;;;;;5056467;28;20205;-69
2022/04/18 00:40:48;;;;;;;3.07;2.77;;;4.60;93.20;;;;;;5055089;28;20288;-69
2022/04/18 00:43:14;;;;;;;6.00;3.20;;;4.60;93.60;;;;;;5055949;28;20634;-69
2022/04/18 00:45:39;;;;;;;2.77;2.53;;;4.60;94.20;;;;;;5054799;28;20209;-69
2022/04/18 00:48:05;;;;;;;3.03;2.73;;;4.50;94.20;;;;;;5055290;28;20232;-69
2022/04/18 00:50:33;;;;;;;3.03;2.47;;;4.40;94.60;;;;;;5056034;28;20196;-69
2022/04/18 00:52:59;;;;;;;2.80;2.60;;;4.30;95.80;;;;;;5056022;28;20174;-69
2022/04/18 00:55:27;;;;;;;5.43;2.60;;;4.30;96.90;;;;;;5055577;28;20194;-69
2022/04/18 00:57:54;;;;;;;3.27;2.37;;;4.30;96.70;;;;;;5055836;28;20181;-69
2022/04/18 01:00:21;;;;;;;2.83;2.57;;;4.30;97.00;;;;;;5054703;28;20185;-69
2022/04/18 01:02:47;;;;;;;3.40;2.30;;;4.20;97.60;;;;;;5055433;28;20174;-69
2022/04/18 01:05:12;;;;;;;3.47;2.63;;;4.30;97.50;;;;;;5055611;28;20174;-69
2022/04/18 01:07:39;;;;;;;2.90;2.47;;;4.30;97.20;;;;;;5054549;28;20170;-69
2022/04/18 01:10:06;;;;;;;3.13;2.40;;;4.40;96.90;;;;;;5055220;28;20261;-69
2022/04/18 01:12:32;;;;;;;3.33;2.50;;;4.40;97.00;;;;;;5054750;28;20216;-69
2022/04/18 01:14:58;;;;;;;4.80;2.50;;;4.40;96.80;;;;;;5054383;28;20174;-69
2022/04/18 01:17:25;;;;;;;4.50;2.27;;;4.40;96.10;;;;;;5055572;28;20221;-71
2022/04/18 01:19:51;;;;;;;3.73;2.43;;;4.40;96.60;;;;;;5055134;28;20174;-72
2022/04/18 01:22:18;;;;;;;2.83;2.40;;;4.30;96.80;;;;;;5054548;28;20178;-71
2022/04/18 01:30:12;;;;;;;4.03;2.30;;;4.40;96.10;;;;;;5055635;28;20304;-72
2022/04/18 01:32:38;;;;;;;6.67;2.40;;;4.40;95.30;;;;;;5054077;28;20175;-71
2022/04/18 01:35:04;;;;;;;3.50;2.87;;;4.30;95.60;;;;;;5053944;28;20206;-71
2022/04/18 01:37:30;;;;;;;3.73;2.57;;;4.30;96.20;;;;;;5055094;28;20667;-71
2022/04/18 01:40:25;;;;;;;3.57;2.40;;;4.20;96.30;;;;;;5055359;28;20178;-71
2022/04/18 01:42:50;;;;;;;3.27;2.20;;;4.20;96.80;;;;;;5055081;28;20542;-71
2022/04/18 01:45:16;;;;;;;6.57;2.30;;;4.20;96.60;;;;;;5053676;28;20182;-71
2022/04/18 01:47:41;;;;;;;2.90;2.40;;;4.20;96.70;;;;;;5053587;28;20179;-71
2022/04/18 01:50:15;;;;;;;9.43;3.10;;;4.20;96.60;;;;;;5054528;28;20178;-72
2022/04/18 01:52:41;;;;;;;5.53;2.73;;;4.10;96.90;;;;;;5053774;28;20214;-71
2022/04/18 01:55:07;;;;;;;3.63;2.80;;;4.10;97.30;;;;;;5053655;28;20216;-71
2022/04/18 01:57:32;;;;;;;4.70;2.60;;;4.10;97.10;;;;;;5053926;28;20190;-71
2022/04/18 01:59:58;;;;;;;4.60;2.37;;;4.00;96.40;;;;;;5053451;28;20178;-71
2022/04/18 02:02:23;;;;;;;5.77;2.63;;;3.80;96.80;;;;;;5053504;28;20182;-71
2022/04/18 02:04:49;;;;;;;6.13;2.73;;;3.70;97.50;;;;;;5053534;28;20186;-71
2022/04/18 02:07:15;;;;;;;8.23;2.83;;;3.70;98.70;;;;;;5053490;28;20206;-71
2022/04/18 02:09:41;;;;;;;4.93;2.93;;;3.70;99.50;;;;;;5053343;28;20206;-71
2022/04/18 02:12:07;;;;;;;5.80;2.83;;;3.80;99.50;;;;;;5054596;28;20178;-71
2022/04/18 02:14:33;;;;;;;5.40;2.97;;;3.90;99.20;;;;;;5053268;28;20189;-71
2022/04/18 02:16:58;;;;;;;7.63;2.80;;;3.90;98.80;;;;;;5053057;28;20202;-69
2022/04/18 02:19:24;;;;;;;3.23;2.63;;;3.70;99.30;;;;;;5053291;28;20276;-69
2022/04/18 02:21:49;;;;;;;3.73;2.90;;;3.60;99.20;;;;;;5053805;28;20291;-71
2022/04/18 02:24:15;;;;;;;3.77;2.57;;;3.50;99.90;;;;;;5054755;28;20174;-71
2022/04/18 02:26:40;;;;;;;4.90;2.70;;;3.50;99.90;;;;;;5053015;28;20244;-71
2022/04/18 02:29:06;;;;;;;4.77;2.83;;;3.40;99.90;;;;;;5052923;28;20201;-71
2022/04/18 02:31:31;;;;;;;5.67;3.00;;;3.20;99.90;;;;;;5053264;28;20178;-71
2022/04/18 02:33:57;;;;;;;4.03;2.77;;;3.10;99.90;;;;;;5052745;28;20182;-69
2022/04/18 02:36:22;;;;;;;3.00;2.50;;;3.10;99.90;;;;;;5053925;28;20248;-69
2022/04/18 02:38:48;;;;;;;2.83;2.63;;;2.90;99.90;;;;;;5053611;28;20178;-69
2022/04/18 02:41:14;;;;;;;2.83;2.50;;;3.00;99.90;;;;;;5053849;28;20715;-69
2022/04/18 02:43:39;;;;;;;3.03;2.73;;;3.00;99.90;;;;;;5052660;28;20256;-69
2022/04/18 02:46:05;;;;;;;2.50;2.30;;;3.00;99.90;;;;;;5053767;28;20265;-69
2022/04/18 02:48:31;;;;;;;2.73;2.53;;;3.00;99.90;;;;;;5053387;28;20192;-69
2022/04/18 02:50:57;;;;;;;3.67;2.53;;;3.00;99.90;;;;;;5052514;28;20257;-69
2022/04/18 02:53:22;;;;;;;3.23;2.30;;;3.00;99.90;;;;;;5052467;28;20260;-69
2022/04/18 02:55:48;;;;;;;2.80;2.43;;;3.00;99.90;;;;;;5052357;28;20205;-68
2022/04/18 02:58:13;;;;;;;2.60;2.37;;;2.90;99.90;;;;;;5052432;28;20189;-68
2022/04/18 03:00:39;;;;;;;2.73;2.53;;;2.90;99.90;;;;;;5052343;28;20188;-68
2022/04/18 03:03:04;;;;;;;2.47;2.27;;;2.90;99.90;;;;;;5053631;28;20171;-68
2022/04/18 03:05:30;;;;;;;4.07;2.37;;;3.00;99.90;;;;;;5053428;28;20603;-68
2022/04/18 03:07:56;;;;;;;2.93;2.67;;;3.00;99.90;;;;;;5053099;28;20200;-69
2022/04/18 03:11:02;;;;;;;2.70;2.50;;;3.00;99.90;;;;;;5053758;28;20188;-69
2022/04/18 03:13:07;;;;;;;2.73;2.27;;;3.00;99.90;;;;;;5053268;28;20185;-69
2022/04/18 03:15:32;;;;;;;3.57;2.50;;;3.10;99.90;;;;;;5052145;28;20206;-68
2022/04/18 03:17:58;;;;;;;2.57;2.37;;;3.20;99.90;;;;;;5052530;28;20185;-69
2022/04/18 03:20:23;;;;;;;2.50;2.30;;;3.10;99.90;;;;;;5052863;28;20269;-69
2022/04/18 03:22:49;;;;;;;3.77;3.33;;;3.10;99.90;;;;;;5051974;28;20183;-70
2022/04/18 03:25:14;;;;;;;12.87;9.33;;;3.20;99.90;;;;;;5051925;28;20261;-71
2022/04/18 03:27:40;;;;;;;10.50;8.23;;;3.20;99.90;;;;;;5052946;28;20202;-71
2022/04/18 03:30:06;;;;;;;16.03;11.70;;;3.10;99.90;;;;;;5053557;28;20205;-71
2022/04/18 03:32:31;;;;;;;13.60;9.90;;;3.10;99.90;;;;;;5052286;28;20255;-69
2022/04/18 03:34:57;;;;;;;12.10;8.50;;;3.10;99.90;;;;;;5052216;28;20178;-69
2022/04/18 03:40:07;;;;;;;11.93;7.23;;;3.00;99.90;;;;;;5053500;28;20686;-70
2022/04/18 03:42:33;;;;;;;7.57;4.90;;;3.00;99.90;;;;;;5053822;28;20193;-71
2022/04/18 03:45:08;;;;;;;4.53;3.70;;;3.00;99.90;;;;;;5057044;28;20243;-71
2022/04/18 03:47:33;;;;;;;4.80;4.30;;;3.00;99.90;;;;;;5056811;28;20212;-70
2022/04/18 03:49:59;;;;;;;13.83;9.23;;;2.80;99.90;;;;;;5055881;28;20268;-70
2022/04/18 03:52:25;;;;;;;8.27;5.97;;;2.90;99.90;;;;;;5056364;28;20260;-70
2022/04/18 03:54:51;;;;;;;11.10;6.90;;;2.90;99.90;;;;;;5055841;28;20249;-70
2022/04/18 03:57:17;;;;;;;8.50;5.10;;;3.00;99.90;;;;;;5055881;28;20201;-69
2022/04/18 03:59:42;;;;;;;5.60;3.90;;;3.00;99.90;;;;;;5056920;28;20182;-69
2022/04/18 04:02:08;;;;;;;8.00;5.10;;;2.90;99.90;;;;;;5055649;28;20227;-69
2022/04/18 04:04:35;;;;;;;10.40;5.90;;;2.90;99.90;;;;;;5055740;28;20185;-69
2022/04/18 04:07:00;;;;;;;8.20;5.23;;;2.80;99.90;;;;;;5055898;28;20206;-68
2022/04/18 04:09:26;;;;;;;7.50;4.07;;;2.90;99.90;;;;;;5056877;28;20253;-68
2022/04/18 04:11:51;;;;;;;7.10;4.33;;;2.80;99.90;;;;;;5056499;28;20536;-68
2022/04/18 04:14:18;;;;;;;11.00;5.40;;;2.80;99.90;;;;;;5055529;28;20171;-69
2022/04/18 04:16:44;;;;;;;7.50;5.00;;;2.70;99.90;;;;;;5056727;28;20206;-69
2022/04/18 04:19:09;;;;;;;4.30;3.70;;;2.70;99.90;;;;;;5056650;28;20232;-69
2022/04/18 04:21:37;;;;;;;4.97;4.27;;;2.80;99.90;;;;;;5055297;28;20205;-69
2022/04/18 04:24:03;;;;;;;3.63;3.00;;;2.80;99.90;;;;;;5056941;28;20185;-69
2022/04/18 04:26:30;;;;;;;4.30;2.70;;;2.80;99.90;;;;;;5054953;28;20222;-68
2022/04/18 04:28:55;;;;;;;3.37;3.00;;;2.70;99.90;;;;;;5056546;28;20178;-68
2022/04/18 04:31:21;;;;;;;5.20;4.30;;;2.70;99.90;;;;;;5056727;28;20273;-68
2022/04/18 04:33:46;;;;;;;4.80;3.77;;;2.70;99.90;;;;;;5056761;28;20198;-69
2022/04/18 04:36:12;;;;;;;3.67;2.90;;;2.80;99.90;;;;;;5055078;28;20205;-69
2022/04/18 04:38:38;;;;;;;3.00;2.70;;;2.80;99.90;;;;;;5055168;28;20182;-69
2022/04/18 04:41:03;;;;;;;3.47;2.70;;;2.70;99.90;;;;;;5055074;28;20214;-69
2022/04/18 04:43:29;;;;;;;5.70;4.10;;;2.70;99.90;;;;;;5054856;28;20182;-69
2022/04/18 04:46:00;;;;;;;3.77;3.40;;;2.80;99.90;;;;;;5055084;28;20218;-70
2022/04/18 04:48:26;;;;;;;4.63;3.00;;;2.80;99.90;;;;;;5055953;28;20178;-70
2022/04/18 04:50:51;;;;;;;3.40;3.10;;;2.90;99.90;;;;;;5056001;28;20171;-70
2022/04/18 04:53:17;;;;;;;5.80;3.53;;;2.90;99.90;;;;;;5055485;28;20508;-70
2022/04/18 04:55:43;;;;;;;2.97;2.77;;;3.00;99.90;;;;;;5054264;28;20206;-70
2022/04/18 04:58:09;;;;;;;3.23;2.93;;;3.00;99.90;;;;;;5054965;28;20185;-70
2022/04/18 05:00:36;;;;;;;2.93;2.57;;;3.10;99.90;;;;;;5055568;28;20174;-70
2022/04/18 05:03:02;;;;;;;3.40;2.93;;;3.10;99.90;;;;;;5055938;28;20179;-70
2022/04/18 05:05:27;;;;;;;4.60;2.80;;;3.20;99.90;;;;;;5054741;28;20198;-70
2022/04/18 05:07:53;;;;;;;3.70;3.30;;;3.10;99.90;;;;;;5056197;28;20174;-70
2022/04/18 05:10:19;;;;;;;7.80;4.83;;;3.20;99.90;;;;;;5055645;28;20170;-71
2022/04/18 05:12:44;;;;;;;6.83;4.57;;;3.20;99.90;;;;;;5054430;28;20182;-70
2022/04/18 05:15:10;;;;;;;5.17;3.77;;;3.00;99.90;;;;;;5054422;28;20181;-70
2022/04/18 05:17:35;;;;;;;6.33;3.70;;;3.10;99.90;;;;;;5054403;28;20213;-70
2022/04/18 05:20:03;;;;;;;8.80;3.33;;;3.20;99.90;;;;;;5054816;28;20690;-70
2022/04/18 05:22:28;;;;;;;3.33;2.93;;;3.20;99.90;;;;;;5055496;28;20185;-70
2022/04/18 05:24:55;;;;;;;3.87;3.27;;;3.30;99.90;;;;;;5054242;28;20186;-70
2022/04/18 05:27:21;;;;;;;3.70;3.40;;;3.50;99.90;;;;;;5053863;28;20225;-70
2022/04/18 05:29:47;;;;;;;4.60;4.20;;;3.60;99.90;;;;;;5055283;28;20181;-70
2022/04/18 05:32:12;;;;;;;6.83;4.00;;;3.80;99.90;;;;;;5054472;28;20174;-70
2022/04/18 05:34:38;;;;;;;5.37;4.30;;;3.90;99.90;;;;;;5055160;28;20198;-70
2022/04/18 05:37:04;;;;;;;5.60;3.30;;;4.10;99.90;;;;;;5055165;28;20202;-70
2022/04/18 05:39:30;;;;;;;3.50;3.20;;;4.20;99.90;;;;;;5053942;28;20232;-70
2022/04/18 05:41:56;;;;;;;3.27;2.87;;;4.30;99.90;;;;;;5054193;28;20180;-70
2022/04/18 05:44:22;;;;;;;5.13;2.70;;;4.50;99.90;;;;;;5053825;28;20606;-70
2022/04/18 05:46:48;;;;;;;2.50;2.30;;;4.60;99.90;;;;;;5054822;28;20221;-70
2022/04/18 05:49:14;;;;;;;2.60;2.40;;;4.70;99.90;;;;;;5053774;28;20206;-70
2022/04/18 05:51:40;;;;;;;2.63;2.07;;;4.80;99.80;;;;;;5053643;28;20189;-70
2022/04/18 05:54:05;;;;;;;6.23;2.57;;;4.80;99.90;;;;;;5054856;28;20182;-70
2022/04/18 05:56:31;;;;;;;4.23;3.30;;;5.00;99.30;;;;;;5055009;28;20194;-70
2022/04/18 05:58:57;;;;;;;4.77;4.23;;;5.10;98.20;;;;;;5054860;28;20183;-70
2022/04/18 06:01:23;;;;;;;42.20;27.97;;;5.20;96.90;;;;;;5054748;28;20190;-70
2022/04/18 06:07:10;;;;;;;11.23;8.20;;;5.60;96.30;;;;;;5053733;28;20224;-70
2022/04/18 06:09:36;;;;;;;26.00;18.17;;;5.70;96.00;;;;;;5053648;28;20174;-70
2022/04/18 06:12:02;;;;;;;9.87;8.17;;;5.80;95.90;;;;;;5054190;28;20258;-70
2022/04/18 06:14:27;;;;;;;9.67;7.30;;;5.90;95.50;;;;;;5053601;28;20582;-70
2022/04/18 06:16:53;;;;;;;9.27;7.53;;;5.90;95.00;;;;;;5053186;28;20240;-70
2022/04/18 06:19:19;;;;;;;10.63;7.87;;;6.00;94.80;;;;;;5053298;28;20235;-70
2022/04/18 06:21:44;;;;;;;9.87;7.27;;;6.10;94.90;;;;;;5054947;28;20185;-70
2022/04/18 06:24:10;;;;;;;7.57;5.50;;;6.20;95.30;;;;;;5053290;28;20174;-70
2022/04/18 06:26:36;;;;;;;5.82;5.18;;;6.30;95.80;;;;;;5052797;28;20218;-70
2022/04/18 06:29:02;;;;;;;10.57;7.82;;;6.40;95.60;;;;;;5053295;28;20174;-70
2022/04/18 06:31:28;;;;;;;15.20;13.02;;;6.60;94.80;;;;;;5052910;28;20170;-70
2022/04/18 06:33:53;;;;;;;14.25;11.73;;;6.70;93.30;;;;;;5053785;28;20506;-70
2022/04/18 06:36:19;;;;;;;10.18;8.25;;;6.80;93.00;;;;;;5052810;28;20193;-70
2022/04/18 06:38:44;;;;;;;7.40;6.40;;;6.90;93.20;;;;;;5054447;28;20185;-69
2022/04/18 06:41:10;;;;;;;5.47;4.80;;;7.00;93.10;;;;;;5052955;28;20213;-69
2022/04/18 06:43:36;;;;;;;7.30;4.40;;;7.20;93.20;;;;;;5052865;28;20162;-69
2022/04/18 06:46:01;;;;;;;5.68;4.70;;;7.40;92.80;;;;;;5053795;28;20209;-69
2022/04/18 06:48:27;;;;;;;5.15;4.63;;;7.60;92.30;;;;;;5052948;28;20182;-69
2022/04/18 06:50:55;;;;;;;6.15;3.60;;;7.70;91.80;;;;;;5053131;28;20641;-69
2022/04/18 06:53:20;;;;;;;3.63;3.30;;;7.90;91.00;;;;;;5053316;28;20167;-70
2022/04/18 06:58:30;;;;;;;3.08;2.88;;;8.10;88.60;;;;;;5053772;28;20228;-69
2022/04/18 07:00:56;;;;;;;5.20;3.45;;;8.10;88.00;;;;;;5053652;28;20575;-67
2022/04/18 07:03:22;;;;;;;3.80;3.38;;;8.20;87.30;;;;;;5052765;28;20174;-67
2022/04/18 07:05:48;;;;;;;3.70;3.17;;;8.40;87.00;;;;;;5053463;28;20276;-67
2022/04/18 07:08:14;;;;;;;4.20;3.05;;;8.50;86.40;;;;;;5052365;28;20189;-69
2022/04/18 07:10:43;;;;;;;7.93;7.13;;;8.50;85.40;;;;;;5064705;28;20174;-68
2022/04/18 07:13:09;;;;;;;4.75;4.18;;;8.70;85.40;;;;;;5066646;28;20175;-68
2022/04/18 07:15:35;;;;;;;5.25;4.40;;;8.80;85.20;;;;;;5066777;28;20202;-68
2022/04/18 07:18:01;;;;;;;4.85;3.40;;;8.90;84.50;;;;;;5060047;28;20243;-67
2022/04/18 07:20:28;;;;;;;3.33;3.03;;;9.10;85.00;;;;;;5057285;28;20174;-67
2022/04/18 07:22:54;;;;;;;4.78;3.60;;;9.20;82.80;;;;;;5054733;28;20178;-69
2022/04/18 07:25:20;;;;;;;5.40;3.30;;;9.30;82.50;;;;;;5054158;28;20173;-67
2022/04/18 07:27:49;;;;;;;3.40;3.10;;;9.40;81.70;;;;;;5041682;28;20233;-67
2022/04/18 07:30:15;;;;;;;3.17;2.88;;;9.50;81.30;;;;;;5061343;28;20174;-67
2022/04/18 07:32:43;;;;;;;6.20;2.92;;;9.40;81.60;;;;;;5057000;28;20208;-67
2022/04/18 07:35:10;;;;;;;3.80;2.97;;;9.30;81.10;;;;;;5050872;28;20170;-67
2022/04/18 07:37:36;;;;;;;3.35;2.70;;;9.40;81.20;;;;;;5052670;28;20178;-68
2022/04/18 07:40:03;;;;;;;5.68;2.90;;;9.50;79.70;;;;;;5051522;28;20182;-67
2022/04/18 07:42:28;;;;;;;6.18;3.03;;;9.50;78.90;;;;;;5052137;28;20174;-68
2022/04/18 07:44:54;;;;;;;3.85;2.90;;;9.60;79.00;;;;;;5051781;28;20676;-68
2022/04/18 07:47:20;;;;;;;3.90;3.50;;;9.90;77.20;;;;;;5051639;28;20214;-68
2022/04/18 07:49:45;;;;;;;3.75;3.00;;;10.10;74.90;;;;;;5053082;28;20199;-68
2022/04/18 07:52:12;;;;;;;4.15;3.20;;;10.10;74.10;;;;;;5052196;28;20171;-68
2022/04/18 07:54:38;;;;;;;2.60;2.40;;;10.40;72.70;;;;;;5052207;28;20223;-68
2022/04/18 07:57:04;;;;;;;2.42;2.22;;;10.50;71.70;;;;;;5051917;28;20281;-68
2022/04/18 07:59:31;;;;;;;2.97;2.40;;;10.70;69.30;;;;;;5052798;28;20182;-68
2022/04/18 08:01:56;;;;;;;2.47;2.25;;;10.90;69.10;;;;;;5052748;28;20177;-68
2022/04/18 08:04:22;;;;;;;2.83;2.20;;;11.10;66.80;;;;;;5053500;28;20241;-68
2022/04/18 08:06:47;;;;;;;2.30;2.10;;;11.20;63.90;;;;;;5051665;28;20228;-68
2022/04/18 08:09:13;;;;;;;2.72;2.20;;;11.30;63.30;;;;;;5051735;28;20256;-68
2022/04/18 08:11:39;;;;;;;3.10;2.10;;;11.40;62.70;;;;;;5052502;28;20178;-68
2022/04/18 08:14:04;;;;;;;2.97;2.50;;;11.50;61.10;;;;;;5051925;28;20637;-68
2022/04/18 08:16:30;;;;;;;2.33;2.17;;;11.50;61.20;;;;;;5051858;28;20237;-68
2022/04/18 08:18:56;;;;;;;2.45;2.28;;;11.60;62.30;;;;;;5052211;28;20184;-68
2022/04/18 08:21:22;;;;;;;2.47;1.90;;;11.70;60.70;;;;;;5051976;28;20182;-68
2022/04/18 08:23:50;;;;;;;2.78;2.10;;;11.80;57.30;;;;;;5051815;28;20175;-68
2022/04/18 08:26:17;;;;;;;2.25;2.05;;;11.90;57.90;;;;;;5051385;28;20299;-68
2022/04/18 08:28:43;;;;;;;2.30;2.10;;;12.00;59.30;;;;;;5052827;28;20170;-68
2022/04/18 08:31:09;;;;;;;183.90;128.98;;;12.10;57.80;;;;;;5055514;28;20175;-68
2022/04/18 08:33:35;;;;;;;58.50;42.05;;;11.90;56.70;;;;;;5055305;28;20174;-68
2022/04/18 08:36:01;;;;;;;28.00;17.77;;;12.00;57.90;;;;;;5055192;28;20657;-68
2022/04/18 08:38:27;;;;;;;3.80;3.42;;;12.10;57.10;;;;;;5055641;28;20185;-68
2022/04/18 08:40:56;;;;;;;3.05;2.85;;;12.30;56.20;;;;;;5055230;28;20181;-69
2022/04/18 08:43:22;;;;;;;2.45;2.10;;;12.40;56.20;;;;;;5055513;28;20186;-69
2022/04/18 08:45:48;;;;;;;2.70;2.03;;;12.50;54.90;;;;;;5055120;28;20209;-69
2022/04/18 08:53:43;;;;;;;2.42;2.17;;;12.70;56.00;;;;;;5056450;28;20672;-68
2022/04/18 08:56:09;;;;;;;2.63;2.00;;;12.90;56.40;;;;;;5054856;28;20198;-69
2022/04/18 08:58:34;;;;;;;2.50;1.95;;;12.80;51.30;;;;;;5054867;28;20189;-69
2022/04/18 09:01:01;;;;;;;2.30;2.10;;;12.80;51.30;;;;;;5054785;28;20251;-69
2022/04/18 09:03:27;;;;;;;2.00;1.80;;;12.80;53.10;;;;;;5055143;28;20265;-69
2022/04/18 09:06:14;;;;;;;2.53;1.90;;;12.90;54.20;;;;;;5055242;28;20300;-69
2022/04/18 09:08:55;;;;;;;1.90;1.80;;;13.00;51.40;;;;;;5055382;28;20217;-68
2022/04/18 09:11:40;;;;;;;3.53;2.00;;;13.10;50.40;;;;;;5054711;28;20170;-68
2022/04/18 09:14:08;;;;;;;4.47;2.20;;;13.00;50.30;;;;;;5056115;28;20158;-68
2022/04/18 09:16:35;;;;;;;2.90;2.10;;;13.00;50.10;;;;;;5056218;28;20206;-68
2022/04/18 09:19:05;;;;;;;3.85;2.03;;;13.10;51.20;;;;;;5055146;28;20189;-68
2022/04/18 09:21:32;;;;;;;1.80;1.70;;;13.30;49.70;;;;;;5054591;28;20186;-68
2022/04/18 09:23:58;;;;;;;2.63;1.90;;;13.30;48.20;;;;;;5055015;28;20174;-68
2022/04/18 09:26:24;;;;;;;2.17;2.00;;;13.40;48.70;;;;;;5054270;28;20226;-68
2022/04/18 09:28:50;;;;;;;5.28;1.90;;;13.40;50.10;;;;;;5055480;28;20257;-68
2022/04/18 09:31:23;;;;;;;3.80;2.10;;;13.30;48.20;;;;;;5054992;28;20335;-68
2022/04/18 09:33:56;;;;;;;2.03;1.63;;;13.20;48.30;;;;;;5055312;28;20193;-68
2022/04/18 09:36:23;;;;;;;2.38;1.85;;;13.30;49.10;;;;;;5054898;28;20226;-68
2022/04/18 09:38:54;;;;;;;2.38;2.00;;;13.40;49.00;;;;;;5054121;28;20640;-68
2022/04/18 09:41:28;;;;;;;2.85;2.20;;;13.40;48.20;;;;;;5055273;28;20174;-68
2022/04/18 09:43:54;;;;;;;2.35;2.15;;;13.40;48.80;;;;;;5054245;28;20177;-68
2022/04/18 09:46:22;;;;;;;2.80;1.90;;;13.40;49.40;;;;;;5054073;28;20264;-68
2022/04/18 09:48:49;;;;;;;2.33;1.98;;;13.50;49.90;;;;;;5054116;28;20637;-68
2022/04/18 09:51:15;;;;;;;2.28;1.98;;;13.70;50.90;;;;;;5054712;28;20179;-68
2022/04/18 09:53:46;;;;;;;2.35;2.03;;;13.90;50.60;;;;;;5054830;28;20174;-68
2022/04/18 09:56:16;;;;;;;3.97;2.00;;;14.10;50.70;;;;;;5054630;28;20225;-68
2022/04/18 09:58:43;;;;;;;1.88;1.77;;;14.00;48.60;;;;;;5055176;28;20246;-68
2022/04/18 10:01:09;;;;;;;2.35;2.00;;;13.90;49.30;;;;;;5054251;28;20225;-68
2022/04/18 10:03:36;;;;;;;2.20;1.90;;;13.90;49.60;;;;;;5054131;28;20179;-68
2022/04/18 10:06:03;;;;;;;2.20;2.00;;;14.10;50.40;;;;;;5053598;28;20214;-68
2022/04/18 10:08:29;;;;;;;1.98;1.77;;;14.30;48.20;;;;;;5053750;28;20261;-68
2022/04/18 10:10:57;;;;;;;3.33;1.70;;;14.30;47.30;;;;;;5055412;28;20198;-68
2022/04/18 10:13:23;;;;;;;1.92;1.80;;;14.40;46.80;;;;;;5054632;28;20178;-68
2022/04/18 10:15:51;;;;;;;2.38;1.75;;;14.50;47.70;;;;;;5054178;28;20194;-68
2022/04/18 10:18:17;;;;;;;1.83;1.73;;;14.60;47.50;;;;;;5054941;28;20672;-68
2022/04/18 10:21:06;;;;;;;2.17;1.65;;;14.70;46.60;;;;;;5054161;28;20181;-69
2022/04/18 10:23:41;;;;;;;1.70;1.60;;;14.70;47.50;;;;;;5054146;28;20178;-69
2022/04/18 10:26:20;;;;;;;1.70;1.58;;;14.80;48.00;;;;;;5053789;28;20221;-69
2022/04/18 10:28:50;;;;;;;1.85;1.70;;;14.80;47.10;;;;;;5055354;28;20509;-69
2022/04/18 10:31:30;;;;;;;1.80;1.70;;;14.80;44.10;;;;;;5053211;28;20253;-69
2022/04/18 10:33:57;;;;;;;2.67;1.58;;;14.30;43.70;;;;;;5053326;28;20517;-69
2022/04/18 10:36:27;;;;;;;1.70;1.60;;;14.40;46.40;;;;;;5053397;28;20205;-69
2022/04/18 10:38:55;;;;;;;2.10;1.67;;;14.40;45.20;;;;;;5053215;28;20538;-69
2022/04/18 10:41:40;;;;;;;1.77;1.67;;;14.60;45.80;;;;;;5054158;28;20257;-69
2022/04/18 10:44:11;;;;;;;1.85;1.75;;;14.70;44.90;;;;;;5053042;28;20178;-69
2022/04/18 10:46:41;;;;;;;2.75;1.80;;;14.50;44.00;;;;;;5053595;28;20213;-69
2022/04/18 10:49:24;;;;;;;1.77;1.67;;;14.30;43.40;;;;;;5053382;28;20245;-69
2022/04/18 10:52:18;;;;;;;2.60;1.60;;;14.30;45.20;;;;;;5053729;28;20260;-69
2022/04/18 10:54:59;;;;;;;2.25;1.70;;;14.40;45.10;;;;;;5051873;28;20625;-69
2022/04/18 10:57:27;;;;;;;1.80;1.70;;;14.60;44.70;;;;;;5052197;28;20252;-69
2022/04/18 10:59:53;;;;;;;3.22;1.50;;;14.60;44.90;;;;;;5053437;28;20179;-69
2022/04/18 11:02:44;;;;;;;1.70;1.60;;;14.80;45.30;;;;;;5053582;28;20204;-69
2022/04/18 11:05:10;;;;;;;1.92;1.73;;;14.70;43.80;;;;;;5052839;28;20177;-69
2022/04/18 11:07:41;;;;;;;2.58;1.92;;;14.60;44.00;;;;;;5053146;28;20206;-69
2022/04/18 11:10:23;;;;;;;2.88;1.88;;;14.60;45.30;;;;;;5053152;28;20266;-69
2022/04/18 11:12:50;;;;;;;1.90;1.70;;;14.50;43.70;;;;;;5053972;28;20253;-69
2022/04/18 11:15:17;;;;;;;2.60;1.70;;;14.70;45.80;;;;;;5052556;28;20273;-69
2022/04/18 11:17:43;;;;;;;2.38;1.67;;;14.80;45.60;;;;;;5053286;28;20181;-69
2022/04/18 11:20:35;;;;;;;2.80;1.80;;;15.00;45.80;;;;;;5052819;28;20178;-69
2022/04/18 11:23:23;;;;;;;2.40;1.80;;;15.30;45.60;;;;;;5053758;28;20162;-69
2022/04/18 11:26:00;;;;;;;2.30;1.63;;;15.40;44.30;;;;;;5053406;28;20221;-69
2022/04/18 11:28:39;;;;;;;1.88;1.75;;;15.30;43.90;;;;;;5052300;28;20178;-69
2022/04/18 11:31:30;;;;;;;2.33;1.60;;;15.40;45.10;;;;;;5053043;28;20296;-70
2022/04/18 11:34:01;;;;;;;2.53;1.90;;;15.10;43.40;;;;;;5052562;28;20216;-69
2022/04/18 11:36:28;;;;;;;3.00;1.75;;;15.00;43.80;;;;;;5052389;28;20229;-69
2022/04/18 11:39:15;;;;;;;1.98;1.55;;;15.00;43.50;;;;;;5053105;28;20268;-69
2022/04/18 11:41:41;;;;;;;1.73;1.60;;;15.10;44.00;;;;;;5052157;28;20210;-69
2022/04/18 11:44:08;;;;;;;2.20;1.65;;;15.10;43.30;;;;;;5052780;28;20178;-69
2022/04/18 11:46:33;;;;;;;1.75;1.65;;;15.20;45.50;;;;;;5051902;28;20214;-69
2022/04/18 11:48:59;;;;;;;1.70;1.60;;;15.40;45.40;;;;;;5052033;28;20182;-69
2022/04/18 11:51:41;;;;;;;1.85;1.75;;;15.60;45.10;;;;;;5052761;28;20170;-69
2022/04/18 11:54:07;;;;;;;1.80;1.70;;;15.60;44.00;;;;;;5053079;28;20244;-69
2022/04/18 11:56:32;;;;;;;2.65;1.60;;;15.60;45.40;;;;;;5051841;28;20194;-69
2022/04/18 11:59:05;;;;;;;1.85;1.70;;;15.70;45.50;;;;;;5052231;28;20178;-69
2022/04/18 12:07:00;;;;;;;2.63;1.58;;;15.90;44.20;;;;;;5057152;28;20244;-69
2022/04/18 12:09:26;;;;;;;1.88;1.75;;;15.90;44.30;;;;;;5057022;28;20170;-69
2022/04/18 12:11:52;;;;;;;3.58;1.67;;;15.90;45.40;;;;;;5055716;28;20656;-69
2022/04/18 12:14:18;;;;;;;2.08;1.50;;;16.10;45.00;;;;;;5057036;28;20170;-69
2022/04/18 12:16:44;;;;;;;3.00;1.48;;;16.00;45.00;;;;;;5055879;28;20202;-69
2022/04/18 12:19:11;;;;;;;1.80;1.70;;;16.20;44.90;;;;;;5056355;28;20174;-69
2022/04/18 12:21:37;;;;;;;1.83;1.73;;;16.30;44.20;;;;;;5056276;28;20216;-69
2022/04/18 12:24:03;;;;;;;2.47;1.80;;;16.40;43.80;;;;;;5055362;28;20178;-69
2022/04/18 12:26:31;;;;;;;1.45;1.35;;;16.40;43.10;;;;;;5055259;28;20267;-69
2022/04/18 12:29:09;;;;;;;1.63;1.40;;;16.40;42.40;;;;;;5055960;28;20658;-69
2022/04/18 12:31:42;;;;;;;1.88;1.65;;;16.30;42.80;;;;;;5056878;28;20163;-69
2022/04/18 12:34:17;;;;;;;3.17;1.60;;;16.20;44.40;;;;;;5055364;28;20174;-69
2022/04/18 12:36:43;;;;;;;2.72;1.73;;;16.20;43.30;;;;;;5055252;28;20212;-69
2022/04/18 12:39:19;;;;;;;1.58;1.38;;;16.30;43.60;;;;;;5055458;28;20178;-69
2022/04/18 12:41:44;;;;;;;1.95;1.60;;;16.10;42.70;;;;;;5055246;28;20178;-69
2022/04/18 12:44:15;;;;;;;1.73;1.60;;;16.00;42.20;;;;;;5055119;28;20179;-69
2022/04/18 12:46:41;;;;;;;1.73;1.63;;;15.90;42.90;;;;;;5055784;28;20205;-69
2022/04/18 12:49:10;;;;;;;2.25;1.85;;;15.70;43.00;;;;;;5055923;28;20288;-69
2022/04/18 12:51:38;;;;;;;1.70;1.60;;;15.60;42.70;;;;;;5055321;28;20244;-69
2022/04/18 12:54:05;;;;;;;1.75;1.65;;;15.50;44.30;;;;;;5054952;28;20192;-69
2022/04/18 12:56:31;;;;;;;4.50;1.50;;;15.50;44.30;;;;;;5054794;28;20220;-69
2022/04/18 12:59:04;;;;;;;1.70;1.60;;;15.70;45.20;;;;;;5055179;28;20178;-69
2022/04/18 13:01:34;;;;;;;1.90;1.67;;;15.90;45.30;;;;;;5055929;28;20173;-69
2022/04/18 13:04:05;;;;;;;1.80;1.70;;;15.90;43.50;;;;;;5054884;28;20182;-69
2022/04/18 13:06:33;;;;;;;2.25;1.58;;;16.10;43.90;;;;;;5054585;28;20240;-69
2022/04/18 13:09:04;;;;;;;1.55;1.40;;;16.20;43.10;;;;;;5054653;28;20185;-69
2022/04/18 13:11:47;;;;;;;1.60;1.50;;;16.30;42.70;;;;;;5054596;28;20596;-69
2022/04/18 13:14:55;;;;;;;1.60;1.50;;;16.40;44.30;;;;;;5054429;28;20181;-69
2022/04/18 13:17:20;;;;;;;1.48;1.35;;;16.40;43.40;;;;;;5054878;28;20209;-69
2022/04/18 13:19:48;;;;;;;1.45;1.35;;;16.40;42.20;;;;;;5055697;28;20214;-69
2022/04/18 13:22:14;;;;;;;1.92;1.50;;;16.50;43.00;;;;;;5054543;28;20174;-69